sensor_id;sensor_type;location;lat;lon;timestamp;P1;durP1;ratioP1;P2;durP2;ratioP2
67597;SDS011;62026;39.230;9.122;2023-04-06T00:02:14;6.75;;;2.10;;
67597;SDS011;62026;39.230;9.122;2023-04-06T00:04:40;7.60;;;2.40;;
67597;SDS011;62026;39.230;9.122;2023-04-06T00:07:06;2.72;;;1.83;;
67597;SDS011;62026;39.230;9.122;2023-04-06T00:09:31;3.55;;;1.90;;
67597;SDS011;62026;39.230;9.122;2023-04-06T00:11:57;6.28;;;2.15;;
67597;SDS011;62026;39.230;9.122;2023-04-06T00:14:23;7.30;;;2.03;;
67597;SDS011;62026;39.230;9.122;2023-04-06T00:16:49;6.78;;;2.00;;
67597;SDS011;62026;39.230;9.122;2023-04-06T00:19:15;7.22;;;1.83;;
67597;SDS011;62026;39.230;9.122;2023-04-06T00:21:41;6.82;;;1.80;;
67597;SDS011;62026;39.230;9.122;2023-04-06T00:24:07;4.28;;;1.60;;
67597;SDS011;62026;39.230;9.122;2023-04-06T00:26:33;5.25;;;1.92;;
67597;SDS011;62026;39.230;9.122;2023-04-06T00:29:00;4.18;;;1.73;;
67597;SDS011;62026;39.230;9.122;2023-04-06T00:31:26;2.85;;;1.73;;
67597;SDS011;62026;39.230;9.122;2023-04-06T00:33:52;5.97;;;1.70;;
67597;SDS011;62026;39.230;9.122;2023-04-06T00:36:18;5.00;;;1.85;;
67597;SDS011;62026;39.230;9.122;2023-04-06T00:38:44;6.55;;;2.28;;
67597;SDS011;62026;39.230;9.122;2023-04-06T00:41:10;3.88;;;2.10;;
67597;SDS011;62026;39.230;9.122;2023-04-06T00:43:37;4.05;;;2.08;;
67597;SDS011;62026;39.230;9.122;2023-04-06T00:46:03;4.25;;;2.05;;
67597;SDS011;62026;39.230;9.122;2023-04-06T00:48:29;5.70;;;2.33;;
67597;SDS011;62026;39.230;9.122;2023-04-06T00:50:57;5.45;;;1.88;;
67597;SDS011;62026;39.230;9.122;2023-04-06T00:53:24;8.48;;;2.40;;
67597;SDS011;62026;39.230;9.122;2023-04-06T00:55:51;3.65;;;1.73;;
67597;SDS011;62026;39.230;9.122;2023-04-06T00:58:17;3.75;;;2.20;;
67597;SDS011;62026;39.230;9.122;2023-04-06T01:00:49;4.73;;;1.73;;
67597;SDS011;62026;39.230;9.122;2023-04-06T01:03:18;5.55;;;1.95;;
67597;SDS011;62026;39.230;9.122;2023-04-06T01:05:44;5.18;;;1.85;;
67597;SDS011;62026;39.230;9.122;2023-04-06T01:08:17;6.63;;;1.88;;
67597;SDS011;62026;39.230;9.122;2023-04-06T01:10:44;5.32;;;1.77;;
67597;SDS011;62026;39.230;9.122;2023-04-06T01:13:21;3.92;;;1.73;;
67597;SDS011;62026;39.230;9.122;2023-04-06T01:15:57;4.15;;;1.40;;
67597;SDS011;62026;39.230;9.122;2023-04-06T01:18:30;5.75;;;1.60;;
67597;SDS011;62026;39.230;9.122;2023-04-06T01:21:09;4.10;;;1.80;;
67597;SDS011;62026;39.230;9.122;2023-04-06T01:23:45;6.30;;;1.75;;
67597;SDS011;62026;39.230;9.122;2023-04-06T01:26:14;3.70;;;1.58;;
67597;SDS011;62026;39.230;9.122;2023-04-06T01:28:40;3.80;;;1.50;;
67597;SDS011;62026;39.230;9.122;2023-04-06T01:31:21;4.60;;;1.70;;
67597;SDS011;62026;39.230;9.122;2023-04-06T01:33:50;4.95;;;1.40;;
67597;SDS011;62026;39.230;9.122;2023-04-06T01:36:19;4.78;;;1.55;;
67597;SDS011;62026;39.230;9.122;2023-04-06T01:38:51;4.60;;;1.50;;
67597;SDS011;62026;39.230;9.122;2023-04-06T01:41:22;4.53;;;1.60;;
67597;SDS011;62026;39.230;9.122;2023-04-06T01:43:51;7.53;;;1.58;;
67597;SDS011;62026;39.230;9.122;2023-04-06T01:46:22;6.80;;;1.65;;
67597;SDS011;62026;39.230;9.122;2023-04-06T01:48:49;6.85;;;1.52;;
67597;SDS011;62026;39.230;9.122;2023-04-06T01:51:30;4.72;;;1.55;;
67597;SDS011;62026;39.230;9.122;2023-04-06T01:53:59;1.95;;;1.20;;
67597;SDS011;62026;39.230;9.122;2023-04-06T01:56:44;4.55;;;1.33;;
67597;SDS011;62026;39.230;9.122;2023-04-06T01:59:42;4.43;;;1.42;;
67597;SDS011;62026;39.230;9.122;2023-04-06T02:02:31;6.70;;;1.38;;
67597;SDS011;62026;39.230;9.122;2023-04-06T02:05:04;4.40;;;1.40;;
67597;SDS011;62026;39.230;9.122;2023-04-06T02:07:31;2.55;;;1.40;;
67597;SDS011;62026;39.230;9.122;2023-04-06T02:09:59;2.10;;;1.35;;
67597;SDS011;62026;39.230;9.122;2023-04-06T02:12:33;6.18;;;1.50;;
67597;SDS011;62026;39.230;9.122;2023-04-06T02:15:00;3.20;;;1.20;;
67597;SDS011;62026;39.230;9.122;2023-04-06T02:17:26;5.40;;;1.40;;
67597;SDS011;62026;39.230;9.122;2023-04-06T02:19:52;7.18;;;1.50;;
67597;SDS011;62026;39.230;9.122;2023-04-06T02:22:18;2.22;;;1.30;;
67597;SDS011;62026;39.230;9.122;2023-04-06T02:24:44;2.72;;;1.20;;
67597;SDS011;62026;39.230;9.122;2023-04-06T02:27:10;2.97;;;1.25;;
67597;SDS011;62026;39.230;9.122;2023-04-06T02:29:36;7.00;;;1.63;;
67597;SDS011;62026;39.230;9.122;2023-04-06T02:32:03;3.13;;;1.40;;
67597;SDS011;62026;39.230;9.122;2023-04-06T02:34:31;5.18;;;1.60;;
67597;SDS011;62026;39.230;9.122;2023-04-06T02:36:57;4.00;;;1.48;;
67597;SDS011;62026;39.230;9.122;2023-04-06T02:39:23;3.10;;;1.33;;
67597;SDS011;62026;39.230;9.122;2023-04-06T02:41:50;3.50;;;1.38;;
67597;SDS011;62026;39.230;9.122;2023-04-06T02:44:20;4.50;;;1.40;;
67597;SDS011;62026;39.230;9.122;2023-04-06T02:46:46;2.38;;;1.15;;
67597;SDS011;62026;39.230;9.122;2023-04-06T02:49:12;4.35;;;1.50;;
67597;SDS011;62026;39.230;9.122;2023-04-06T02:51:38;3.10;;;1.42;;
67597;SDS011;62026;39.230;9.122;2023-04-06T02:54:27;5.53;;;1.40;;
67597;SDS011;62026;39.230;9.122;2023-04-06T02:56:53;4.53;;;1.50;;
67597;SDS011;62026;39.230;9.122;2023-04-06T02:59:21;5.22;;;1.67;;
67597;SDS011;62026;39.230;9.122;2023-04-06T03:01:58;2.67;;;1.50;;
67597;SDS011;62026;39.230;9.122;2023-04-06T03:04:24;3.70;;;1.80;;
67597;SDS011;62026;39.230;9.122;2023-04-06T03:06:53;5.75;;;1.70;;
67597;SDS011;62026;39.230;9.122;2023-04-06T03:09:30;4.60;;;1.95;;
67597;SDS011;62026;39.230;9.122;2023-04-06T03:11:56;3.28;;;1.52;;
67597;SDS011;62026;39.230;9.122;2023-04-06T03:14:27;4.47;;;1.73;;
67597;SDS011;62026;39.230;9.122;2023-04-06T03:16:55;4.68;;;1.88;;
67597;SDS011;62026;39.230;9.122;2023-04-06T03:19:23;3.95;;;1.67;;
67597;SDS011;62026;39.230;9.122;2023-04-06T03:21:49;9.45;;;1.95;;
67597;SDS011;62026;39.230;9.122;2023-04-06T03:24:17;2.70;;;1.90;;
67597;SDS011;62026;39.230;9.122;2023-04-06T03:26:43;3.88;;;1.90;;
67597;SDS011;62026;39.230;9.122;2023-04-06T03:29:09;6.82;;;1.85;;
67597;SDS011;62026;39.230;9.122;2023-04-06T03:31:35;3.20;;;1.90;;
67597;SDS011;62026;39.230;9.122;2023-04-06T03:34:23;2.70;;;1.40;;
67597;SDS011;62026;39.230;9.122;2023-04-06T03:36:49;3.38;;;1.58;;
67597;SDS011;62026;39.230;9.122;2023-04-06T03:39:15;3.13;;;1.70;;
67597;SDS011;62026;39.230;9.122;2023-04-06T03:41:42;3.58;;;1.85;;
67597;SDS011;62026;39.230;9.122;2023-04-06T03:44:29;3.40;;;1.52;;
67597;SDS011;62026;39.230;9.122;2023-04-06T03:46:55;4.15;;;2.05;;
67597;SDS011;62026;39.230;9.122;2023-04-06T03:49:21;3.97;;;1.40;;
67597;SDS011;62026;39.230;9.122;2023-04-06T03:51:49;5.18;;;1.55;;
67597;SDS011;62026;39.230;9.122;2023-04-06T03:54:16;5.65;;;1.50;;
67597;SDS011;62026;39.230;9.122;2023-04-06T03:56:41;5.93;;;1.45;;
67597;SDS011;62026;39.230;9.122;2023-04-06T03:59:07;4.80;;;1.30;;
67597;SDS011;62026;39.230;9.122;2023-04-06T04:01:33;5.97;;;1.73;;
67597;SDS011;62026;39.230;9.122;2023-04-06T04:04:01;2.58;;;1.55;;
67597;SDS011;62026;39.230;9.122;2023-04-06T04:06:29;4.13;;;1.60;;
67597;SDS011;62026;39.230;9.122;2023-04-06T04:08:56;5.78;;;2.00;;
67597;SDS011;62026;39.230;9.122;2023-04-06T04:11:22;2.72;;;1.65;;
67597;SDS011;62026;39.230;9.122;2023-04-06T04:13:54;4.75;;;1.95;;
67597;SDS011;62026;39.230;9.122;2023-04-06T04:16:20;4.10;;;1.88;;
67597;SDS011;62026;39.230;9.122;2023-04-06T04:18:46;6.05;;;2.00;;
67597;SDS011;62026;39.230;9.122;2023-04-06T04:21:13;3.13;;;1.80;;
67597;SDS011;62026;39.230;9.122;2023-04-06T04:23:40;4.32;;;2.08;;
67597;SDS011;62026;39.230;9.122;2023-04-06T04:26:06;4.85;;;1.90;;
67597;SDS011;62026;39.230;9.122;2023-04-06T04:28:33;6.47;;;1.70;;
67597;SDS011;62026;39.230;9.122;2023-04-06T04:30:59;5.28;;;1.75;;
67597;SDS011;62026;39.230;9.122;2023-04-06T04:33:27;4.57;;;2.10;;
67597;SDS011;62026;39.230;9.122;2023-04-06T04:35:55;3.95;;;1.88;;
67597;SDS011;62026;39.230;9.122;2023-04-06T04:38:25;4.75;;;1.60;;
67597;SDS011;62026;39.230;9.122;2023-04-06T04:40:54;5.13;;;1.83;;
67597;SDS011;62026;39.230;9.122;2023-04-06T04:43:21;7.95;;;1.88;;
67597;SDS011;62026;39.230;9.122;2023-04-06T04:45:47;6.28;;;1.92;;
67597;SDS011;62026;39.230;9.122;2023-04-06T04:48:26;3.35;;;1.90;;
67597;SDS011;62026;39.230;9.122;2023-04-06T04:50:59;6.55;;;2.25;;
67597;SDS011;62026;39.230;9.122;2023-04-06T04:53:33;4.88;;;2.10;;
67597;SDS011;62026;39.230;9.122;2023-04-06T04:56:07;5.15;;;1.83;;
67597;SDS011;62026;39.230;9.122;2023-04-06T04:58:33;5.75;;;2.00;;
67597;SDS011;62026;39.230;9.122;2023-04-06T05:00:59;6.78;;;2.00;;
67597;SDS011;62026;39.230;9.122;2023-04-06T05:03:26;4.45;;;2.00;;
67597;SDS011;62026;39.230;9.122;2023-04-06T05:06:00;6.45;;;2.10;;
67597;SDS011;62026;39.230;9.122;2023-04-06T05:08:30;5.32;;;2.05;;
67597;SDS011;62026;39.230;9.122;2023-04-06T05:10:56;4.18;;;1.90;;
67597;SDS011;62026;39.230;9.122;2023-04-06T05:13:23;7.50;;;2.05;;
67597;SDS011;62026;39.230;9.122;2023-04-06T05:15:51;3.75;;;2.03;;
67597;SDS011;62026;39.230;9.122;2023-04-06T05:18:27;7.93;;;2.25;;
67597;SDS011;62026;39.230;9.122;2023-04-06T05:20:55;5.05;;;2.15;;
67597;SDS011;62026;39.230;9.122;2023-04-06T05:23:28;7.40;;;2.10;;
67597;SDS011;62026;39.230;9.122;2023-04-06T05:25:54;4.68;;;1.80;;
67597;SDS011;62026;39.230;9.122;2023-04-06T05:28:21;2.38;;;1.95;;
67597;SDS011;62026;39.230;9.122;2023-04-06T05:30:47;5.88;;;2.50;;
67597;SDS011;62026;39.230;9.122;2023-04-06T05:33:15;3.88;;;2.03;;
67597;SDS011;62026;39.230;9.122;2023-04-06T05:35:56;6.75;;;2.35;;
67597;SDS011;62026;39.230;9.122;2023-04-06T05:38:22;8.93;;;2.35;;
67597;SDS011;62026;39.230;9.122;2023-04-06T05:40:50;2.03;;;1.60;;
67597;SDS011;62026;39.230;9.122;2023-04-06T05:43:20;6.00;;;2.10;;
67597;SDS011;62026;39.230;9.122;2023-04-06T05:45:51;4.80;;;2.47;;
67597;SDS011;62026;39.230;9.122;2023-04-06T05:48:17;7.35;;;2.35;;
67597;SDS011;62026;39.230;9.122;2023-04-06T05:50:47;4.03;;;2.38;;
67597;SDS011;62026;39.230;9.122;2023-04-06T05:53:19;6.93;;;2.10;;
67597;SDS011;62026;39.230;9.122;2023-04-06T05:55:51;9.68;;;2.70;;
67597;SDS011;62026;39.230;9.122;2023-04-06T05:58:19;7.93;;;2.75;;
67597;SDS011;62026;39.230;9.122;2023-04-06T06:00:49;5.78;;;2.40;;
67597;SDS011;62026;39.230;9.122;2023-04-06T06:03:18;10.77;;;2.47;;
67597;SDS011;62026;39.230;9.122;2023-04-06T06:05:50;7.90;;;2.33;;
67597;SDS011;62026;39.230;9.122;2023-04-06T06:08:23;4.65;;;1.95;;
67597;SDS011;62026;39.230;9.122;2023-04-06T06:10:50;6.90;;;2.45;;
67597;SDS011;62026;39.230;9.122;2023-04-06T06:13:20;8.82;;;2.50;;
67597;SDS011;62026;39.230;9.122;2023-04-06T06:15:47;7.95;;;2.65;;
67597;SDS011;62026;39.230;9.122;2023-04-06T06:18:15;8.65;;;2.45;;
67597;SDS011;62026;39.230;9.122;2023-04-06T06:20:42;9.32;;;2.50;;
67597;SDS011;62026;39.230;9.122;2023-04-06T06:23:08;6.43;;;2.33;;
67597;SDS011;62026;39.230;9.122;2023-04-06T06:25:35;7.45;;;2.72;;
67597;SDS011;62026;39.230;9.122;2023-04-06T06:28:02;6.72;;;2.67;;
67597;SDS011;62026;39.230;9.122;2023-04-06T06:30:30;10.35;;;2.80;;
67597;SDS011;62026;39.230;9.122;2023-04-06T06:32:56;8.57;;;2.60;;
67597;SDS011;62026;39.230;9.122;2023-04-06T06:35:22;4.53;;;2.10;;
67597;SDS011;62026;39.230;9.122;2023-04-06T06:37:48;6.22;;;2.58;;
67597;SDS011;62026;39.230;9.122;2023-04-06T06:40:19;7.82;;;2.30;;
67597;SDS011;62026;39.230;9.122;2023-04-06T06:42:49;5.72;;;2.25;;
67597;SDS011;62026;39.230;9.122;2023-04-06T06:45:31;5.95;;;2.65;;
67597;SDS011;62026;39.230;9.122;2023-04-06T06:47:57;5.97;;;2.35;;
67597;SDS011;62026;39.230;9.122;2023-04-06T06:50:23;7.30;;;2.25;;
67597;SDS011;62026;39.230;9.122;2023-04-06T06:52:50;10.27;;;2.50;;
67597;SDS011;62026;39.230;9.122;2023-04-06T06:55:16;6.78;;;2.40;;
67597;SDS011;62026;39.230;9.122;2023-04-06T06:57:44;6.82;;;2.50;;
67597;SDS011;62026;39.230;9.122;2023-04-06T07:00:12;6.35;;;2.22;;
67597;SDS011;62026;39.230;9.122;2023-04-06T07:02:40;5.75;;;2.20;;
67597;SDS011;62026;39.230;9.122;2023-04-06T07:05:06;3.63;;;2.20;;
67597;SDS011;62026;39.230;9.122;2023-04-06T07:07:33;5.43;;;2.00;;
67597;SDS011;62026;39.230;9.122;2023-04-06T07:09:59;6.53;;;1.75;;
67597;SDS011;62026;39.230;9.122;2023-04-06T07:12:26;3.33;;;1.50;;
67597;SDS011;62026;39.230;9.122;2023-04-06T07:14:52;6.07;;;1.80;;
67597;SDS011;62026;39.230;9.122;2023-04-06T07:17:18;11.25;;;2.10;;
67597;SDS011;62026;39.230;9.122;2023-04-06T07:19:45;10.10;;;1.60;;
67597;SDS011;62026;39.230;9.122;2023-04-06T07:22:11;5.40;;;1.45;;
67597;SDS011;62026;39.230;9.122;2023-04-06T07:24:37;2.45;;;1.20;;
67597;SDS011;62026;39.230;9.122;2023-04-06T07:27:03;5.93;;;1.50;;
67597;SDS011;62026;39.230;9.122;2023-04-06T07:29:30;8.65;;;2.03;;
67597;SDS011;62026;39.230;9.122;2023-04-06T07:31:56;10.70;;;1.63;;
67597;SDS011;62026;39.230;9.122;2023-04-06T07:34:22;3.10;;;1.50;;
67597;SDS011;62026;39.230;9.122;2023-04-06T07:36:49;6.18;;;1.33;;
67597;SDS011;62026;39.230;9.122;2023-04-06T07:39:15;6.88;;;1.73;;
67597;SDS011;62026;39.230;9.122;2023-04-06T07:41:41;7.00;;;1.55;;
67597;SDS011;62026;39.230;9.122;2023-04-06T07:44:07;2.72;;;1.42;;
67597;SDS011;62026;39.230;9.122;2023-04-06T07:46:33;9.98;;;1.70;;
67597;SDS011;62026;39.230;9.122;2023-04-06T07:49:01;8.75;;;2.75;;
67597;SDS011;62026;39.230;9.122;2023-04-06T07:51:30;9.93;;;2.20;;
67597;SDS011;62026;39.230;9.122;2023-04-06T07:53:56;4.13;;;1.90;;
67597;SDS011;62026;39.230;9.122;2023-04-06T07:56:22;8.90;;;1.63;;
67597;SDS011;62026;39.230;9.122;2023-04-06T07:58:48;9.43;;;1.92;;
67597;SDS011;62026;39.230;9.122;2023-04-06T08:01:14;4.47;;;1.40;;
67597;SDS011;62026;39.230;9.122;2023-04-06T08:03:40;3.78;;;1.52;;
67597;SDS011;62026;39.230;9.122;2023-04-06T08:06:06;9.45;;;2.05;;
67597;SDS011;62026;39.230;9.122;2023-04-06T08:08:32;4.63;;;1.95;;
67597;SDS011;62026;39.230;9.122;2023-04-06T08:10:58;4.53;;;1.88;;
67597;SDS011;62026;39.230;9.122;2023-04-06T08:13:24;6.45;;;1.98;;
67597;SDS011;62026;39.230;9.122;2023-04-06T08:15:50;9.85;;;2.45;;
67597;SDS011;62026;39.230;9.122;2023-04-06T08:18:16;5.63;;;1.90;;
67597;SDS011;62026;39.230;9.122;2023-04-06T08:20:42;3.90;;;1.60;;
67597;SDS011;62026;39.230;9.122;2023-04-06T08:23:08;7.40;;;1.63;;
67597;SDS011;62026;39.230;9.122;2023-04-06T08:25:36;6.22;;;1.70;;
67597;SDS011;62026;39.230;9.122;2023-04-06T08:28:02;6.55;;;1.63;;
67597;SDS011;62026;39.230;9.122;2023-04-06T08:30:29;6.00;;;1.73;;
67597;SDS011;62026;39.230;9.122;2023-04-06T08:32:56;4.43;;;1.70;;
67597;SDS011;62026;39.230;9.122;2023-04-06T08:35:21;4.40;;;1.60;;
67597;SDS011;62026;39.230;9.122;2023-04-06T08:37:47;6.90;;;1.55;;
67597;SDS011;62026;39.230;9.122;2023-04-06T08:40:13;5.88;;;1.70;;
67597;SDS011;62026;39.230;9.122;2023-04-06T08:42:40;5.60;;;1.80;;
67597;SDS011;62026;39.230;9.122;2023-04-06T08:45:17;5.10;;;1.80;;
67597;SDS011;62026;39.230;9.122;2023-04-06T08:47:46;6.85;;;2.00;;
67597;SDS011;62026;39.230;9.122;2023-04-06T08:50:17;7.40;;;2.08;;
67597;SDS011;62026;39.230;9.122;2023-04-06T08:52:47;4.40;;;1.60;;
67597;SDS011;62026;39.230;9.122;2023-04-06T08:55:14;5.35;;;1.60;;
67597;SDS011;62026;39.230;9.122;2023-04-06T08:57:41;5.10;;;1.80;;
67597;SDS011;62026;39.230;9.122;2023-04-06T09:00:09;3.80;;;1.73;;
67597;SDS011;62026;39.230;9.122;2023-04-06T09:02:39;5.13;;;2.05;;
67597;SDS011;62026;39.230;9.122;2023-04-06T09:05:10;4.05;;;1.75;;
67597;SDS011;62026;39.230;9.122;2023-04-06T09:07:38;3.40;;;1.45;;
67597;SDS011;62026;39.230;9.122;2023-04-06T09:10:04;9.20;;;1.60;;
67597;SDS011;62026;39.230;9.122;2023-04-06T09:12:32;6.97;;;1.40;;
67597;SDS011;62026;39.230;9.122;2023-04-06T09:14:59;2.90;;;1.20;;
67597;SDS011;62026;39.230;9.122;2023-04-06T09:17:30;4.10;;;1.27;;
67597;SDS011;62026;39.230;9.122;2023-04-06T09:20:01;3.22;;;1.15;;
67597;SDS011;62026;39.230;9.122;2023-04-06T09:22:35;4.60;;;1.40;;
67597;SDS011;62026;39.230;9.122;2023-04-06T09:25:03;2.63;;;1.08;;
67597;SDS011;62026;39.230;9.122;2023-04-06T09:27:34;8.23;;;1.40;;
67597;SDS011;62026;39.230;9.122;2023-04-06T09:30:06;16.05;;;1.63;;
67597;SDS011;62026;39.230;9.122;2023-04-06T09:32:48;4.53;;;1.48;;
67597;SDS011;62026;39.230;9.122;2023-04-06T09:35:15;4.18;;;1.52;;
67597;SDS011;62026;39.230;9.122;2023-04-06T09:37:43;5.57;;;1.60;;
67597;SDS011;62026;39.230;9.122;2023-04-06T09:40:09;5.75;;;1.55;;
67597;SDS011;62026;39.230;9.122;2023-04-06T09:42:36;3.90;;;1.42;;
67597;SDS011;62026;39.230;9.122;2023-04-06T09:45:02;2.88;;;1.40;;
67597;SDS011;62026;39.230;9.122;2023-04-06T09:47:32;4.40;;;1.58;;
67597;SDS011;62026;39.230;9.122;2023-04-06T09:50:01;2.85;;;1.63;;
67597;SDS011;62026;39.230;9.122;2023-04-06T09:52:32;3.33;;;1.50;;
67597;SDS011;62026;39.230;9.122;2023-04-06T09:55:05;3.05;;;1.60;;
67597;SDS011;62026;39.230;9.122;2023-04-06T09:57:45;4.43;;;1.77;;
67597;SDS011;62026;39.230;9.122;2023-04-06T10:00:32;5.07;;;1.67;;
67597;SDS011;62026;39.230;9.122;2023-04-06T10:08:28;5.05;;;1.15;;
67597;SDS011;62026;39.230;9.122;2023-04-06T10:11:00;5.20;;;1.50;;
67597;SDS011;62026;39.230;9.122;2023-04-06T10:13:27;2.78;;;1.20;;
67597;SDS011;62026;39.230;9.122;2023-04-06T10:15:54;3.20;;;1.23;;
67597;SDS011;62026;39.230;9.122;2023-04-06T10:18:20;4.70;;;1.30;;
67597;SDS011;62026;39.230;9.122;2023-04-06T10:20:51;2.95;;;1.20;;
67597;SDS011;62026;39.230;9.122;2023-04-06T10:23:33;4.95;;;1.20;;
67597;SDS011;62026;39.230;9.122;2023-04-06T10:26:14;2.97;;;1.23;;
67597;SDS011;62026;39.230;9.122;2023-04-06T10:28:43;3.45;;;1.20;;
67597;SDS011;62026;39.230;9.122;2023-04-06T10:31:12;5.28;;;1.30;;
67597;SDS011;62026;39.230;9.122;2023-04-06T10:33:38;1.90;;;1.05;;
67597;SDS011;62026;39.230;9.122;2023-04-06T10:36:24;3.17;;;1.30;;
67597;SDS011;62026;39.230;9.122;2023-04-06T10:38:56;3.90;;;1.33;;
67597;SDS011;62026;39.230;9.122;2023-04-06T10:41:46;4.55;;;1.30;;
67597;SDS011;62026;39.230;9.122;2023-04-06T10:44:23;4.40;;;1.25;;
67597;SDS011;62026;39.230;9.122;2023-04-06T10:46:53;4.07;;;1.05;;
67597;SDS011;62026;39.230;9.122;2023-04-06T10:49:26;2.70;;;1.08;;
67597;SDS011;62026;39.230;9.122;2023-04-06T10:51:53;4.43;;;1.27;;
67597;SDS011;62026;39.230;9.122;2023-04-06T10:54:22;2.15;;;1.08;;
67597;SDS011;62026;39.230;9.122;2023-04-06T10:56:51;2.88;;;1.10;;
67597;SDS011;62026;39.230;9.122;2023-04-06T10:59:20;4.25;;;1.20;;
67597;SDS011;62026;39.230;9.122;2023-04-06T11:01:47;3.00;;;1.13;;
67597;SDS011;62026;39.230;9.122;2023-04-06T11:04:15;3.35;;;1.50;;
67597;SDS011;62026;39.230;9.122;2023-04-06T11:06:46;4.35;;;1.30;;
67597;SDS011;62026;39.230;9.122;2023-04-06T11:09:27;2.90;;;1.10;;
67597;SDS011;62026;39.230;9.122;2023-04-06T11:14:22;2.95;;;1.30;;
67597;SDS011;62026;39.230;9.122;2023-04-06T11:16:48;4.55;;;1.70;;
67597;SDS011;62026;39.230;9.122;2023-04-06T11:19:16;3.25;;;1.00;;
67597;SDS011;62026;39.230;9.122;2023-04-06T11:21:43;4.03;;;1.40;;
67597;SDS011;62026;39.230;9.122;2023-04-06T11:24:18;3.37;;;1.47;;
67597;SDS011;62026;39.230;9.122;2023-04-06T11:26:46;3.22;;;1.23;;
67597;SDS011;62026;39.230;9.122;2023-04-06T11:29:24;6.25;;;1.38;;
67597;SDS011;62026;39.230;9.122;2023-04-06T11:31:58;3.85;;;1.75;;
67597;SDS011;62026;39.230;9.122;2023-04-06T11:34:38;3.90;;;1.50;;
67597;SDS011;62026;39.230;9.122;2023-04-06T11:37:10;4.07;;;1.50;;
67597;SDS011;62026;39.230;9.122;2023-04-06T11:39:38;2.33;;;1.33;;
67597;SDS011;62026;39.230;9.122;2023-04-06T11:42:07;2.42;;;1.50;;
67597;SDS011;62026;39.230;9.122;2023-04-06T11:47:05;4.13;;;1.40;;
67597;SDS011;62026;39.230;9.122;2023-04-06T11:49:41;3.00;;;1.50;;
67597;SDS011;62026;39.230;9.122;2023-04-06T11:54:50;3.08;;;1.20;;
67597;SDS011;62026;39.230;9.122;2023-04-06T11:57:18;3.75;;;1.17;;
67597;SDS011;62026;39.230;9.122;2023-04-06T11:59:49;3.57;;;1.80;;
67597;SDS011;62026;39.230;9.122;2023-04-06T12:02:15;4.78;;;1.95;;
67597;SDS011;62026;39.230;9.122;2023-04-06T12:04:42;4.50;;;1.25;;
67597;SDS011;62026;39.230;9.122;2023-04-06T12:07:09;2.88;;;1.40;;
67597;SDS011;62026;39.230;9.122;2023-04-06T12:09:35;4.05;;;1.20;;
67597;SDS011;62026;39.230;9.122;2023-04-06T12:12:02;3.42;;;1.48;;
67597;SDS011;62026;39.230;9.122;2023-04-06T12:14:28;5.57;;;1.38;;
67597;SDS011;62026;39.230;9.122;2023-04-06T12:16:56;2.83;;;1.23;;
67597;SDS011;62026;39.230;9.122;2023-04-06T12:19:23;3.35;;;1.20;;
67597;SDS011;62026;39.230;9.122;2023-04-06T12:21:51;3.45;;;1.55;;
67597;SDS011;62026;39.230;9.122;2023-04-06T12:24:19;9.88;;;1.40;;
67597;SDS011;62026;39.230;9.122;2023-04-06T12:26:46;3.03;;;1.40;;
67597;SDS011;62026;39.230;9.122;2023-04-06T12:29:12;7.65;;;1.60;;
67597;SDS011;62026;39.230;9.122;2023-04-06T12:31:38;2.25;;;1.42;;
67597;SDS011;62026;39.230;9.122;2023-04-06T12:34:06;2.67;;;1.30;;
67597;SDS011;62026;39.230;9.122;2023-04-06T12:36:32;6.18;;;1.40;;
67597;SDS011;62026;39.230;9.122;2023-04-06T12:38:59;4.90;;;1.80;;
67597;SDS011;62026;39.230;9.122;2023-04-06T12:41:27;3.15;;;1.02;;
67597;SDS011;62026;39.230;9.122;2023-04-06T12:43:53;4.88;;;1.60;;
67597;SDS011;62026;39.230;9.122;2023-04-06T12:46:19;2.83;;;1.30;;
67597;SDS011;62026;39.230;9.122;2023-04-06T12:48:45;2.88;;;1.25;;
67597;SDS011;62026;39.230;9.122;2023-04-06T12:51:12;2.83;;;1.10;;
67597;SDS011;62026;39.230;9.122;2023-04-06T12:53:39;2.72;;;1.23;;
67597;SDS011;62026;39.230;9.122;2023-04-06T12:56:11;4.82;;;1.15;;
67597;SDS011;62026;39.230;9.122;2023-04-06T12:58:41;4.63;;;1.15;;
67597;SDS011;62026;39.230;9.122;2023-04-06T13:01:07;2.20;;;1.08;;
67597;SDS011;62026;39.230;9.122;2023-04-06T13:03:33;5.15;;;1.25;;
67597;SDS011;62026;39.230;9.122;2023-04-06T13:06:00;2.70;;;1.38;;
67597;SDS011;62026;39.230;9.122;2023-04-06T13:08:27;6.15;;;1.27;;
67597;SDS011;62026;39.230;9.122;2023-04-06T13:10:53;5.20;;;1.27;;
67597;SDS011;62026;39.230;9.122;2023-04-06T13:13:22;1.70;;;1.10;;
67597;SDS011;62026;39.230;9.122;2023-04-06T13:15:51;5.13;;;1.52;;
67597;SDS011;62026;39.230;9.122;2023-04-06T13:18:29;6.20;;;1.23;;
67597;SDS011;62026;39.230;9.122;2023-04-06T13:20:56;4.97;;;1.30;;
67597;SDS011;62026;39.230;9.122;2023-04-06T13:23:22;3.65;;;1.23;;
67597;SDS011;62026;39.230;9.122;2023-04-06T13:26:04;4.63;;;1.23;;
67597;SDS011;62026;39.230;9.122;2023-04-06T13:28:32;3.85;;;1.42;;
67597;SDS011;62026;39.230;9.122;2023-04-06T13:33:31;3.88;;;1.33;;
67597;SDS011;62026;39.230;9.122;2023-04-06T13:35:58;3.45;;;1.40;;
67597;SDS011;62026;39.230;9.122;2023-04-06T13:38:24;5.93;;;1.58;;
67597;SDS011;62026;39.230;9.122;2023-04-06T13:40:50;6.50;;;1.42;;
67597;SDS011;62026;39.230;9.122;2023-04-06T13:43:16;4.03;;;1.00;;
67597;SDS011;62026;39.230;9.122;2023-04-06T13:45:50;3.20;;;0.80;;
67597;SDS011;62026;39.230;9.122;2023-04-06T13:48:19;1.38;;;1.00;;
67597;SDS011;62026;39.230;9.122;2023-04-06T13:50:46;3.13;;;0.90;;
67597;SDS011;62026;39.230;9.122;2023-04-06T13:53:12;2.38;;;0.80;;
67597;SDS011;62026;39.230;9.122;2023-04-06T13:55:38;3.50;;;1.02;;
67597;SDS011;62026;39.230;9.122;2023-04-06T13:58:05;4.55;;;1.50;;
67597;SDS011;62026;39.230;9.122;2023-04-06T14:00:31;8.50;;;1.30;;
67597;SDS011;62026;39.230;9.122;2023-04-06T14:02:57;2.40;;;0.85;;
67597;SDS011;62026;39.230;9.122;2023-04-06T14:05:23;5.70;;;1.25;;
67597;SDS011;62026;39.230;9.122;2023-04-06T14:07:49;5.25;;;1.10;;
67597;SDS011;62026;39.230;9.122;2023-04-06T14:10:16;3.78;;;0.98;;
67597;SDS011;62026;39.230;9.122;2023-04-06T14:12:42;1.90;;;0.95;;
67597;SDS011;62026;39.230;9.122;2023-04-06T14:15:10;4.60;;;0.98;;
67597;SDS011;62026;39.230;9.122;2023-04-06T14:17:37;4.45;;;1.77;;
67597;SDS011;62026;39.230;9.122;2023-04-06T14:20:05;3.22;;;1.10;;
67597;SDS011;62026;39.230;9.122;2023-04-06T14:22:32;9.18;;;1.52;;
67597;SDS011;62026;39.230;9.122;2023-04-06T14:24:58;2.40;;;0.80;;
67597;SDS011;62026;39.230;9.122;2023-04-06T14:27:24;2.55;;;1.08;;
67597;SDS011;62026;39.230;9.122;2023-04-06T14:29:51;2.55;;;0.82;;
67597;SDS011;62026;39.230;9.122;2023-04-06T14:32:18;2.28;;;0.80;;
67597;SDS011;62026;39.230;9.122;2023-04-06T14:34:45;4.10;;;1.10;;
67597;SDS011;62026;39.230;9.122;2023-04-06T14:37:11;4.75;;;1.02;;
67597;SDS011;62026;39.230;9.122;2023-04-06T14:39:37;1.83;;;0.73;;
67597;SDS011;62026;39.230;9.122;2023-04-06T14:42:03;2.85;;;1.02;;
67597;SDS011;62026;39.230;9.122;2023-04-06T14:44:29;7.15;;;1.20;;
67597;SDS011;62026;39.230;9.122;2023-04-06T14:46:59;3.58;;;1.08;;
67597;SDS011;62026;39.230;9.122;2023-04-06T14:49:25;2.97;;;0.85;;
67597;SDS011;62026;39.230;9.122;2023-04-06T14:51:51;4.40;;;1.00;;
67597;SDS011;62026;39.230;9.122;2023-04-06T14:54:17;2.63;;;1.42;;
67597;SDS011;62026;39.230;9.122;2023-04-06T14:56:43;6.00;;;1.10;;
67597;SDS011;62026;39.230;9.122;2023-04-06T14:59:09;3.05;;;1.23;;
67597;SDS011;62026;39.230;9.122;2023-04-06T15:01:36;2.45;;;0.90;;
67597;SDS011;62026;39.230;9.122;2023-04-06T15:04:03;2.00;;;0.70;;
67597;SDS011;62026;39.230;9.122;2023-04-06T15:06:29;2.50;;;1.00;;
67597;SDS011;62026;39.230;9.122;2023-04-06T15:08:56;3.03;;;1.08;;
67597;SDS011;62026;39.230;9.122;2023-04-06T15:11:22;4.43;;;1.00;;
67597;SDS011;62026;39.230;9.122;2023-04-06T15:13:48;2.72;;;0.82;;